createdAt,value
2022-10-17T00:00:49.403Z,7.31
2022-10-17T00:03:21.316Z,7.30
2022-10-17T00:05:53.751Z,7.30
2022-10-17T00:08:26.136Z,7.28
2022-10-17T00:11:00.055Z,7.30
2022-10-17T00:16:07.610Z,7.32
2022-10-17T00:18:44.160Z,7.31
2022-10-17T00:21:17.865Z,7.30
2022-10-17T00:23:50.454Z,7.29
2022-10-17T00:26:22.212Z,7.29
2022-10-17T00:28:54.999Z,7.31
2022-10-17T00:31:27.980Z,7.35
2022-10-17T00:34:00.266Z,7.39
2022-10-17T00:36:35.218Z,7.42
2022-10-17T00:39:07.283Z,7.41
2022-10-17T00:41:41.648Z,7.40
2022-10-17T00:44:34.803Z,7.38
2022-10-17T00:47:11.125Z,7.38
2022-10-17T00:49:43.881Z,7.37
2022-10-17T00:52:21.975Z,7.36
2022-10-17T00:54:56.717Z,7.38
2022-10-17T00:57:30.029Z,7.37
2022-10-17T01:00:04.245Z,7.34
2022-10-17T01:02:36.862Z,7.35
2022-10-17T01:05:09.178Z,7.35
2022-10-17T01:07:43.281Z,7.33
2022-10-17T01:10:16.542Z,7.26
2022-10-17T01:13:07.237Z,7.20
2022-10-17T01:15:54.663Z,7.14
2022-10-17T01:18:56.519Z,7.10
2022-10-17T01:21:46.550Z,7.05
2022-10-17T01:24:46.636Z,7.03
2022-10-17T01:28:00.740Z,7.07
2022-10-17T01:30:55.782Z,7.08
2022-10-17T01:33:37.799Z,7.09
2022-10-17T01:36:27.129Z,7.13
2022-10-17T01:39:18.433Z,7.18
2022-10-17T01:42:01.121Z,7.26
2022-10-17T01:44:52.548Z,7.31
2022-10-17T01:47:26.882Z,7.34
2022-10-17T01:50:01.485Z,7.33
2022-10-17T01:52:48.479Z,7.32
2022-10-17T01:55:34.225Z,7.32
2022-10-17T01:58:25.243Z,7.31
2022-10-17T02:00:58.699Z,7.29
2022-10-17T02:03:34.122Z,7.29
2022-10-17T02:06:06.419Z,7.29
2022-10-17T02:08:47.062Z,7.31
2022-10-17T02:11:25.834Z,7.31
2022-10-17T02:14:13.765Z,7.30
2022-10-17T02:17:00.620Z,7.26
2022-10-17T02:19:54.570Z,7.22
2022-10-17T02:22:50.317Z,7.22
2022-10-17T02:25:44.225Z,7.30
2022-10-17T02:28:31.433Z,7.38
2022-10-17T02:31:06.074Z,7.42
2022-10-17T02:33:53.612Z,7.45
2022-10-17T02:36:31.292Z,7.49
2022-10-17T02:39:06.032Z,7.53
2022-10-17T02:44:24.326Z,7.56
2022-10-17T02:46:58.788Z,7.58
2022-10-17T02:49:33.433Z,7.56
2022-10-17T02:52:13.860Z,7.57
2022-10-17T02:54:56.909Z,7.57
2022-10-17T02:57:40.432Z,7.58
2022-10-17T03:00:16.726Z,7.58
2022-10-17T03:02:51.926Z,7.56
2022-10-17T03:05:26.635Z,7.56
2022-10-17T03:07:58.421Z,7.52
2022-10-17T03:10:30.463Z,7.48
2022-10-17T03:13:02.795Z,7.45
2022-10-17T03:15:37.900Z,7.44
2022-10-17T03:18:10.374Z,7.42
2022-10-17T03:20:43.783Z,7.43
2022-10-17T03:23:15.985Z,7.47
2022-10-17T03:25:47.905Z,7.53
2022-10-17T03:28:28.917Z,7.54
2022-10-17T03:31:02.843Z,7.56
2022-10-17T03:33:36.800Z,7.60
2022-10-17T03:36:11.787Z,7.59
2022-10-17T03:38:45.782Z,7.62
2022-10-17T03:41:18.773Z,7.64
2022-10-17T03:43:54.001Z,7.65
2022-10-17T03:46:28.778Z,7.66
2022-10-17T03:49:02.440Z,7.63
2022-10-17T03:51:36.310Z,7.57
2022-10-17T03:54:10.487Z,7.52
2022-10-17T03:56:46.543Z,7.49
2022-10-17T04:02:35.306Z,7.38
2022-10-17T04:05:28.788Z,7.34
2022-10-17T04:08:03.918Z,7.32
2022-10-17T04:10:36.493Z,7.29
2022-10-17T04:13:08.394Z,7.27
2022-10-17T04:15:46.142Z,7.26
2022-10-17T04:18:18.712Z,7.26
2022-10-17T04:20:51.412Z,7.27
2022-10-17T04:23:25.754Z,7.29
2022-10-17T04:26:00.210Z,7.31
2022-10-17T04:28:34.089Z,7.31
2022-10-17T04:31:09.213Z,7.29
2022-10-17T04:33:44.758Z,7.30
2022-10-17T04:36:19.431Z,7.30
2022-10-17T04:38:54.364Z,7.28
2022-10-17T04:41:26.487Z,7.33
2022-10-17T04:43:59.959Z,7.45
2022-10-17T04:46:35.144Z,7.68
2022-10-17T04:49:06.856Z,8.04
2022-10-17T04:51:40.278Z,8.43
2022-10-17T04:54:22.747Z,8.86
2022-10-17T04:56:56.527Z,9.23
2022-10-17T04:59:30.052Z,9.56
2022-10-17T05:02:07.751Z,9.89
2022-10-17T05:04:42.528Z,10.04
2022-10-17T05:07:15.136Z,10.17
2022-10-17T05:09:50.593Z,10.08
2022-10-17T05:12:23.736Z,9.88
2022-10-17T05:14:57.306Z,9.83
2022-10-17T05:17:30.271Z,10.12
2022-10-17T05:20:02.172Z,10.55
2022-10-17T05:22:39.645Z,11.03
2022-10-17T05:25:10.906Z,11.44
2022-10-17T05:27:44.908Z,11.83
2022-10-17T05:30:16.928Z,12.27
2022-10-17T05:32:50.267Z,12.67
2022-10-17T05:35:23.050Z,13.03
2022-10-17T05:38:00.431Z,13.35
2022-10-17T05:40:34.502Z,13.62
2022-10-17T05:43:07.246Z,13.82
2022-10-17T05:45:40.078Z,14.01
2022-10-17T05:48:13.202Z,14.28
2022-10-17T05:50:48.777Z,14.57
2022-10-17T05:53:21.114Z,14.79
2022-10-17T05:56:00.366Z,15.00
2022-10-17T05:58:51.811Z,15.18
2022-10-17T06:01:12.810Z,15.30
2022-10-17T06:03:45.243Z,15.38
2022-10-17T06:06:17.320Z,15.61
2022-10-17T06:08:50.363Z,15.92
2022-10-17T06:11:23.841Z,16.10
2022-10-17T06:13:55.619Z,16.14
2022-10-17T06:16:28.987Z,16.28
2022-10-17T06:19:01.838Z,16.40
2022-10-17T06:21:36.067Z,16.60
2022-10-17T06:24:12.009Z,16.78
2022-10-17T06:26:50.543Z,16.96
2022-10-17T06:29:26.157Z,17.20
2022-10-17T06:31:59.574Z,17.36
2022-10-17T06:34:31.880Z,17.59
2022-10-17T06:37:09.476Z,17.76
2022-10-17T06:39:43.761Z,18.04
2022-10-17T06:42:20.439Z,18.24
2022-10-17T06:45:30.536Z,18.23
2022-10-17T06:48:21.538Z,18.34
2022-10-17T06:51:04.624Z,18.58
2022-10-17T06:53:38.086Z,18.81
2022-10-17T06:56:12.039Z,18.99
2022-10-17T06:58:51.324Z,19.19
2022-10-17T07:01:30.105Z,19.18
2022-10-17T07:04:04.131Z,19.00
2022-10-17T07:06:37.349Z,18.82
2022-10-17T07:09:11.314Z,18.85
2022-10-17T07:11:43.435Z,18.90
2022-10-17T07:14:16.909Z,18.83
2022-10-17T07:16:51.437Z,18.73
2022-10-17T07:19:25.085Z,18.88
2022-10-17T07:21:56.907Z,19.22
2022-10-17T07:24:29.626Z,19.69
2022-10-17T07:27:03.094Z,20.19
2022-10-17T07:29:36.839Z,20.56
2022-10-17T07:32:10.799Z,20.68
2022-10-17T07:34:44.295Z,20.77
2022-10-17T07:37:16.646Z,20.82
2022-10-17T07:39:50.998Z,21.01
2022-10-17T07:42:23.994Z,20.98
2022-10-17T07:44:57.359Z,20.80
2022-10-17T07:47:32.705Z,20.93
2022-10-17T07:50:07.156Z,21.20
2022-10-17T07:52:38.917Z,21.37
2022-10-17T07:55:10.912Z,21.53
2022-10-17T07:57:45.381Z,21.65
2022-10-17T08:00:18.362Z,21.60
2022-10-17T08:02:50.198Z,21.40
2022-10-17T08:05:23.544Z,21.34
2022-10-17T08:07:56.730Z,21.29
2022-10-17T08:10:30.789Z,21.14
2022-10-17T08:13:04.123Z,21.12
2022-10-17T08:15:39.359Z,21.36
2022-10-17T08:18:11.378Z,21.47
2022-10-17T08:20:44.736Z,21.49
2022-10-17T08:23:23.899Z,21.57
2022-10-17T08:26:10.455Z,21.77
2022-10-17T08:28:44.083Z,21.99
2022-10-17T08:31:20.817Z,22.17
2022-10-17T08:33:53.125Z,22.40
2022-10-17T08:36:25.097Z,22.71
2022-10-17T08:38:56.907Z,22.83
2022-10-17T08:41:42.121Z,22.68
2022-10-17T08:44:36.034Z,22.34
2022-10-17T08:47:12.231Z,22.18
2022-10-17T08:49:47.854Z,22.36
2022-10-17T08:52:43.718Z,22.47
2022-10-17T08:57:51.944Z,22.85
2022-10-17T09:00:24.209Z,22.81
2022-10-17T09:03:05.619Z,22.59
2022-10-17T09:05:42.217Z,22.49
2022-10-17T09:08:36.904Z,22.60
2022-10-17T09:11:21.096Z,22.83
2022-10-17T09:14:11.245Z,22.72
2022-10-17T09:17:07.371Z,22.63
2022-10-17T09:19:41.681Z,22.68
2022-10-17T09:22:19.477Z,22.75
2022-10-17T09:25:12.777Z,22.80
2022-10-17T09:27:47.833Z,22.82
2022-10-17T09:30:45.523Z,23.00
2022-10-17T09:33:28.501Z,23.28
2022-10-17T09:35:53.167Z,23.19
2022-10-17T09:38:28.295Z,23.16
2022-10-17T09:41:01.689Z,23.53
2022-10-17T09:43:33.990Z,23.54
2022-10-17T09:46:13.782Z,23.59
2022-10-17T09:51:33.058Z,24.22
2022-10-17T09:54:08.399Z,24.62
2022-10-17T09:56:59.710Z,24.95
2022-10-17T09:59:39.791Z,25.28
2022-10-17T10:02:29.039Z,25.66
2022-10-17T10:05:06.878Z,25.88
2022-10-17T10:07:40.107Z,25.86
2022-10-17T10:10:27.924Z,25.72
2022-10-17T10:13:09.365Z,25.59
2022-10-17T10:15:44.361Z,25.62
2022-10-17T10:18:36.050Z,25.63
2022-10-17T10:21:21.313Z,25.75
2022-10-17T10:24:15.395Z,25.84
2022-10-17T10:26:48.823Z,25.88
2022-10-17T10:29:31.160Z,25.93
2022-10-17T10:32:23.782Z,25.93
2022-10-17T10:35:05.611Z,25.83
2022-10-17T10:37:44.920Z,25.68
2022-10-17T10:40:19.388Z,25.78
2022-10-17T10:42:52.780Z,25.84
2022-10-17T10:45:48.944Z,25.77
2022-10-17T10:48:27.238Z,25.89
2022-10-17T10:51:07.366Z,26.09
2022-10-17T10:54:00.510Z,26.11
2022-10-17T10:56:40.985Z,26.18
2022-10-17T10:59:32.674Z,26.11
2022-10-17T11:02:18.308Z,25.93
2022-10-17T11:05:06.892Z,25.68
2022-10-17T11:07:48.487Z,25.62
2022-10-17T11:10:35.904Z,25.33
2022-10-17T11:13:17.839Z,25.02
2022-10-17T11:15:56.607Z,24.86
2022-10-17T11:18:42.327Z,24.94
2022-10-17T11:21:19.704Z,25.14
2022-10-17T11:24:06.992Z,25.54
2022-10-17T11:26:43.246Z,25.76
2022-10-17T11:29:16.170Z,25.69
2022-10-17T11:31:50.555Z,25.61
2022-10-17T11:34:45.920Z,25.40
2022-10-17T11:37:20.801Z,24.99
2022-10-17T11:39:58.611Z,24.38
2022-10-17T11:42:36.023Z,23.59
2022-10-17T11:45:14.679Z,22.86
2022-10-17T11:47:48.109Z,22.03
2022-10-17T11:53:06.965Z,20.63
2022-10-17T11:55:38.736Z,20.12
2022-10-17T11:58:20.324Z,19.55
2022-10-17T12:01:18.951Z,19.22
2022-10-17T12:04:05.561Z,19.04
2022-10-17T12:06:58.901Z,18.79
2022-10-17T12:09:48.728Z,18.56
2022-10-17T12:12:29.192Z,18.39
2022-10-17T12:15:26.419Z,18.19
2022-10-17T12:18:03.927Z,18.03
2022-10-17T12:20:40.510Z,17.94
2022-10-17T12:23:19.344Z,17.85
2022-10-17T12:26:04.634Z,17.76
2022-10-17T12:28:46.169Z,17.70
2022-10-17T12:31:21.866Z,17.66
2022-10-17T12:34:04.606Z,17.62
2022-10-17T12:36:38.220Z,17.56
2022-10-17T12:39:16.055Z,17.47
2022-10-17T12:41:51.368Z,17.41
2022-10-17T12:44:32.040Z,17.37
2022-10-17T12:47:15.809Z,17.35
2022-10-17T12:49:53.140Z,17.33
2022-10-17T12:52:39.680Z,17.32
2022-10-17T12:55:19.362Z,17.32
2022-10-17T12:58:01.935Z,17.31
2022-10-17T13:00:39.918Z,17.25
2022-10-17T13:03:27.891Z,17.23
2022-10-17T13:06:02.294Z,17.20
2022-10-17T13:08:43.156Z,17.19
2022-10-17T13:11:16.812Z,17.17
2022-10-17T13:13:52.156Z,17.15
2022-10-17T13:16:40.788Z,17.12
2022-10-17T13:19:18.198Z,17.10
2022-10-17T13:22:17.185Z,17.07
2022-10-17T13:24:49.471Z,17.06
2022-10-17T13:27:28.670Z,17.04
2022-10-17T13:30:03.494Z,17.04
2022-10-17T13:32:40.892Z,17.08
2022-10-17T13:35:18.159Z,17.09
2022-10-17T13:37:53.918Z,17.09
2022-10-17T13:45:47.612Z,17.09
2022-10-17T13:48:23.791Z,17.06
2022-10-17T13:51:02.430Z,17.07
2022-10-17T13:53:35.849Z,17.06
2022-10-17T13:56:30.481Z,17.05
2022-10-17T13:59:05.180Z,17.03
2022-10-17T14:01:37.689Z,17.01
2022-10-17T14:04:19.475Z,17.01
2022-10-17T14:06:49.339Z,16.99
2022-10-17T14:09:27.629Z,16.95
2022-10-17T14:12:13.849Z,16.98
2022-10-17T14:15:09.155Z,17.01
2022-10-17T14:17:29.775Z,17.02
2022-10-17T14:20:34.031Z,17.01
2022-10-17T14:22:39.720Z,16.97
2022-10-17T14:25:38.527Z,16.92
2022-10-17T14:28:16.914Z,16.90
2022-10-17T14:30:56.886Z,16.85
2022-10-17T14:33:27.016Z,16.82
2022-10-17T14:36:02.058Z,16.80
2022-10-17T14:38:36.360Z,16.78
2022-10-17T14:43:45.083Z,16.75
2022-10-17T14:46:17.899Z,16.75
2022-10-17T14:48:59.977Z,16.76
2022-10-17T14:51:44.673Z,16.76
2022-10-17T14:54:16.506Z,16.74
2022-10-17T14:56:53.603Z,16.75
2022-10-17T15:02:00.060Z,16.76
2022-10-17T15:04:31.836Z,16.75
2022-10-17T15:07:03.642Z,16.74
2022-10-17T15:09:37.197Z,16.72
2022-10-17T15:12:15.085Z,16.72
2022-10-17T15:14:52.277Z,16.70
2022-10-17T15:17:28.751Z,16.64
2022-10-17T15:20:01.433Z,16.60
2022-10-17T15:22:35.304Z,16.54
2022-10-17T15:25:09.159Z,16.47
2022-10-17T15:27:40.867Z,16.39
2022-10-17T15:30:20.662Z,16.32
2022-10-17T15:32:49.545Z,16.25
2022-10-17T15:35:21.772Z,16.18
2022-10-17T15:37:54.060Z,16.10
2022-10-17T15:40:31.948Z,16.02
2022-10-17T15:43:03.646Z,15.96
2022-10-17T15:45:36.457Z,15.92
2022-10-17T15:48:12.040Z,15.89
2022-10-17T15:50:45.373Z,15.86
2022-10-17T15:53:17.477Z,15.80
2022-10-17T15:55:51.046Z,15.76
2022-10-17T15:58:23.233Z,15.72
2022-10-17T16:00:55.534Z,15.68
2022-10-17T16:03:29.422Z,15.68
2022-10-17T16:06:02.271Z,15.64
2022-10-17T16:08:34.151Z,15.62
2022-10-17T16:11:06.633Z,15.59
2022-10-17T16:13:40.828Z,15.56
2022-10-17T16:16:13.284Z,15.56
2022-10-17T16:18:44.973Z,15.53
2022-10-17T16:21:19.531Z,15.52
2022-10-17T16:23:51.414Z,15.53
2022-10-17T16:26:23.462Z,15.50
2022-10-17T16:28:57.848Z,15.48
2022-10-17T16:31:35.146Z,15.47
2022-10-17T16:34:09.071Z,15.46
2022-10-17T16:36:43.447Z,15.46
2022-10-17T16:39:15.237Z,15.41
2022-10-17T16:41:47.257Z,15.37
2022-10-17T16:44:19.731Z,15.32
2022-10-17T16:46:54.403Z,15.26
2022-10-17T16:49:27.169Z,15.22
2022-10-17T16:52:00.515Z,15.15
2022-10-17T16:54:34.131Z,15.13
2022-10-17T16:57:09.748Z,15.11
2022-10-17T16:59:45.690Z,15.13
2022-10-17T17:02:21.298Z,15.13
2022-10-17T17:04:52.849Z,15.10
2022-10-17T17:07:24.751Z,15.07
2022-10-17T17:09:57.143Z,15.04
2022-10-17T17:12:32.504Z,15.03
2022-10-17T17:15:06.159Z,15.01
2022-10-17T17:17:49.610Z,15.00
2022-10-17T17:20:12.297Z,14.98
2022-10-17T17:22:47.070Z,14.98
2022-10-17T17:25:23.943Z,14.96
2022-10-17T17:27:56.218Z,14.93
2022-10-17T17:30:30.091Z,14.92
2022-10-17T17:33:04.721Z,14.92
2022-10-17T17:36:00.239Z,14.92
2022-10-17T17:38:35.366Z,14.92
2022-10-17T17:41:12.087Z,14.91
2022-10-17T17:43:45.418Z,14.90
2022-10-17T17:46:24.932Z,14.89
2022-10-17T17:49:03.097Z,14.86
2022-10-17T17:51:37.827Z,14.82
2022-10-17T17:54:12.640Z,14.78
2022-10-17T17:56:48.916Z,14.75
2022-10-17T17:59:26.185Z,14.74
2022-10-17T18:02:00.140Z,14.76
2022-10-17T18:04:34.090Z,14.74
2022-10-17T18:07:09.048Z,14.74
2022-10-17T18:09:45.114Z,14.72
2022-10-17T18:12:31.089Z,14.71
2022-10-17T18:15:03.831Z,14.72
2022-10-17T18:17:38.487Z,14.71
2022-10-17T18:20:13.907Z,14.69
2022-10-17T18:22:47.746Z,14.67
2022-10-17T18:25:31.478Z,14.65
2022-10-17T18:28:04.210Z,14.63
2022-10-17T18:30:40.219Z,14.64
2022-10-17T18:33:22.949Z,14.62
2022-10-17T18:35:58.243Z,14.61
2022-10-17T18:38:40.033Z,14.59
2022-10-17T18:41:23.141Z,14.61
2022-10-17T18:43:57.639Z,14.59
2022-10-17T18:46:42.108Z,14.59
2022-10-17T18:49:16.064Z,14.58
2022-10-17T18:51:49.587Z,14.57
2022-10-17T18:54:24.848Z,14.54
2022-10-17T18:56:58.036Z,14.53
2022-10-17T18:59:32.402Z,14.51
2022-10-17T19:02:07.513Z,14.51
2022-10-17T19:04:40.921Z,14.49
2022-10-17T19:07:14.508Z,14.45
2022-10-17T19:09:49.631Z,14.43
2022-10-17T19:12:22.535Z,14.42
2022-10-17T19:14:57.024Z,14.39
2022-10-17T19:17:31.637Z,14.34
2022-10-17T19:20:03.806Z,14.33
2022-10-17T19:22:35.651Z,14.31
2022-10-17T19:25:07.713Z,14.30
2022-10-17T19:27:41.196Z,14.26
2022-10-17T19:30:13.152Z,14.22
2022-10-17T19:32:48.307Z,14.20
2022-10-17T19:35:20.681Z,14.18
2022-10-17T19:37:55.583Z,14.16
2022-10-17T19:40:27.507Z,14.14
2022-10-17T19:43:00.262Z,14.13
2022-10-17T19:45:32.518Z,14.09
2022-10-17T19:48:04.458Z,14.07
2022-10-17T19:50:39.193Z,14.04
2022-10-17T19:53:11.551Z,14.04
2022-10-17T19:55:43.704Z,14.05
2022-10-17T19:58:16.495Z,14.08
2022-10-17T20:00:50.015Z,14.07
2022-10-17T20:03:23.268Z,14.08
2022-10-17T20:05:54.926Z,14.05
2022-10-17T20:08:29.617Z,14.03
2022-10-17T20:11:11.253Z,14.00
2022-10-17T20:13:44.850Z,13.99
2022-10-17T20:16:21.767Z,13.95
2022-10-17T20:18:57.065Z,13.94
2022-10-17T20:21:31.180Z,13.91
2022-10-17T20:24:04.638Z,13.89
2022-10-17T20:26:38.649Z,13.88
2022-10-17T20:29:13.886Z,13.87
2022-10-17T20:31:47.200Z,13.87
2022-10-17T20:34:19.737Z,13.86
2022-10-17T20:36:51.755Z,13.82
2022-10-17T20:39:23.618Z,13.79
2022-10-17T20:41:56.959Z,13.77
2022-10-17T20:44:28.637Z,13.76
2022-10-17T20:47:02.577Z,13.75
2022-10-17T20:49:34.408Z,13.72
2022-10-17T20:52:07.062Z,13.72
2022-10-17T20:54:38.834Z,13.71
2022-10-17T20:57:10.715Z,13.72
2022-10-17T20:59:42.415Z,13.74
2022-10-17T21:02:14.444Z,13.75
2022-10-17T21:04:48.359Z,13.77
2022-10-17T21:07:22.148Z,13.77
2022-10-17T21:09:54.298Z,13.77
2022-10-17T21:12:36.862Z,13.76
2022-10-17T21:15:01.499Z,13.76
2022-10-17T21:17:33.849Z,13.76
2022-10-17T21:20:07.627Z,13.76
2022-10-17T21:22:39.842Z,13.76
2022-10-17T21:25:11.652Z,13.73
2022-10-17T21:27:43.986Z,13.71
2022-10-17T21:30:17.233Z,13.70
2022-10-17T21:32:52.424Z,13.66
2022-10-17T21:35:23.195Z,13.63
2022-10-17T21:37:55.239Z,13.62
2022-10-17T21:40:27.047Z,13.61
2022-10-17T21:42:59.741Z,13.59
2022-10-17T21:45:33.007Z,13.58
2022-10-17T21:48:14.233Z,13.56
2022-10-17T21:50:41.534Z,13.53
2022-10-17T21:53:14.374Z,13.50
2022-10-17T21:55:46.760Z,13.47
2022-10-17T21:58:18.728Z,13.45
2022-10-17T22:00:52.096Z,13.43
2022-10-17T22:03:24.037Z,13.42
2022-10-17T22:06:07.129Z,13.42
2022-10-17T22:08:30.837Z,13.42
2022-10-17T22:11:08.197Z,13.41
2022-10-17T22:13:44.445Z,13.39
2022-10-17T22:16:17.266Z,13.39
2022-10-17T22:18:50.410Z,13.38
2022-10-17T22:21:23.293Z,13.37
2022-10-17T22:24:00.593Z,13.36
2022-10-17T22:26:35.495Z,13.33
2022-10-17T22:29:09.800Z,13.31
2022-10-17T22:31:42.807Z,13.29
2022-10-17T22:34:16.168Z,13.27
2022-10-17T22:36:51.145Z,13.24
2022-10-17T22:39:23.100Z,13.22
2022-10-17T22:41:54.945Z,13.20
2022-10-17T22:44:26.925Z,13.17
2022-10-17T22:46:59.924Z,13.14
2022-10-17T22:49:33.348Z,13.10
2022-10-17T22:52:06.719Z,13.07
2022-10-17T22:54:42.151Z,13.02
2022-10-17T22:57:18.514Z,12.98
2022-10-17T22:59:50.415Z,12.96
2022-10-17T23:02:22.418Z,12.92
2022-10-17T23:04:56.129Z,12.88
2022-10-17T23:07:27.964Z,12.84
2022-10-17T23:09:59.960Z,12.80
2022-10-17T23:12:32.914Z,12.76
2022-10-17T23:15:05.959Z,12.72
2022-10-17T23:17:38.243Z,12.70
2022-10-17T23:20:13.773Z,12.67
2022-10-17T23:22:49.527Z,12.65
2022-10-17T23:25:21.303Z,12.61
2022-10-17T23:27:54.480Z,12.59
2022-10-17T23:30:26.977Z,12.58
2022-10-17T23:33:00.528Z,12.57
2022-10-17T23:35:33.305Z,12.56
2022-10-17T23:38:05.230Z,12.53
2022-10-17T23:40:38.187Z,12.51
2022-10-17T23:43:11.890Z,12.47
2022-10-17T23:45:44.033Z,12.45
2022-10-17T23:48:15.818Z,12.42
2022-10-17T23:50:50.545Z,12.40
2022-10-17T23:53:23.486Z,12.37
2022-10-17T23:55:55.209Z,12.33
2022-10-17T23:58:27.116Z,12.31
